sensor_id;sensor_type;location;lat;lon;timestamp;temperature;humidity
19017;DHT22;9641;51.494;6.670;2023-03-04T00:02:21;5.60;1.00
19017;DHT22;9641;51.494;6.670;2023-03-04T00:04:49;5.60;1.00
19017;DHT22;9641;51.494;6.670;2023-03-04T00:07:16;5.60;1.00
19017;DHT22;9641;51.494;6.670;2023-03-04T00:09:44;5.60;1.00
19017;DHT22;9641;51.494;6.670;2023-03-04T00:12:11;5.60;1.00
19017;DHT22;9641;51.494;6.670;2023-03-04T00:14:38;5.60;1.00
19017;DHT22;9641;51.494;6.670;2023-03-04T00:17:05;5.60;1.00
19017;DHT22;9641;51.494;6.670;2023-03-04T00:19:32;5.60;1.00
19017;DHT22;9641;51.494;6.670;2023-03-04T00:22:01;5.60;1.00
19017;DHT22;9641;51.494;6.670;2023-03-04T00:24:28;5.60;99.90
19017;DHT22;9641;51.494;6.670;2023-03-04T00:26:55;5.60;93.40
19017;DHT22;9641;51.494;6.670;2023-03-04T00:29:32;5.60;1.00
19017;DHT22;9641;51.494;6.670;2023-03-04T00:31:59;5.50;1.00
19017;DHT22;9641;51.494;6.670;2023-03-04T00:34:26;5.50;1.00
19017;DHT22;9641;51.494;6.670;2023-03-04T00:36:53;5.60;1.00
19017;DHT22;9641;51.494;6.670;2023-03-04T00:39:27;5.50;99.90
19017;DHT22;9641;51.494;6.670;2023-03-04T00:41:54;5.40;1.00
19017;DHT22;9641;51.494;6.670;2023-03-04T00:44:21;5.50;1.00
19017;DHT22;9641;51.494;6.670;2023-03-04T00:46:48;5.60;1.00
19017;DHT22;9641;51.494;6.670;2023-03-04T00:49:15;5.70;1.00
19017;DHT22;9641;51.494;6.670;2023-03-04T00:51:42;5.60;1.00
19017;DHT22;9641;51.494;6.670;2023-03-04T00:54:09;5.50;1.00
19017;DHT22;9641;51.494;6.670;2023-03-04T00:56:37;5.50;1.00
19017;DHT22;9641;51.494;6.670;2023-03-04T00:59:04;5.40;1.00
19017;DHT22;9641;51.494;6.670;2023-03-04T01:01:31;5.40;1.00
19017;DHT22;9641;51.494;6.670;2023-03-04T01:03:58;5.40;4.10
19017;DHT22;9641;51.494;6.670;2023-03-04T01:06:25;5.40;1.00
19017;DHT22;9641;51.494;6.670;2023-03-04T01:08:52;5.40;1.00
19017;DHT22;9641;51.494;6.670;2023-03-04T01:11:19;5.40;1.00
19017;DHT22;9641;51.494;6.670;2023-03-04T01:13:48;5.50;1.00
19017;DHT22;9641;51.494;6.670;2023-03-04T01:16:15;5.40;99.90
19017;DHT22;9641;51.494;6.670;2023-03-04T01:18:42;5.40;1.00
19017;DHT22;9641;51.494;6.670;2023-03-04T01:21:09;5.50;1.00
19017;DHT22;9641;51.494;6.670;2023-03-04T01:23:36;5.60;1.00
19017;DHT22;9641;51.494;6.670;2023-03-04T01:26:03;5.50;1.00
19017;DHT22;9641;51.494;6.670;2023-03-04T01:28:30;5.50;15.30
19017;DHT22;9641;51.494;6.670;2023-03-04T01:31:01;5.60;1.00
19017;DHT22;9641;51.494;6.670;2023-03-04T01:33:29;5.50;1.00
19017;DHT22;9641;51.494;6.670;2023-03-04T01:35:56;5.40;84.70
19017;DHT22;9641;51.494;6.670;2023-03-04T01:38:24;5.50;38.10
19017;DHT22;9641;51.494;6.670;2023-03-04T01:40:51;5.50;99.90
19017;DHT22;9641;51.494;6.670;2023-03-04T01:43:21;5.50;99.90
19017;DHT22;9641;51.494;6.670;2023-03-04T01:45:49;5.50;99.90
19017;DHT22;9641;51.494;6.670;2023-03-04T01:48:22;5.50;37.20
19017;DHT22;9641;51.494;6.670;2023-03-04T01:50:50;5.50;7.10
19017;DHT22;9641;51.494;6.670;2023-03-04T01:53:20;5.50;99.90
19017;DHT22;9641;51.494;6.670;2023-03-04T01:55:48;5.50;1.00
19017;DHT22;9641;51.494;6.670;2023-03-04T01:58:15;5.50;1.00
19017;DHT22;9641;51.494;6.670;2023-03-04T02:00:42;5.60;1.00
19017;DHT22;9641;51.494;6.670;2023-03-04T02:03:13;5.60;1.00
19017;DHT22;9641;51.494;6.670;2023-03-04T02:05:44;5.50;1.00
19017;DHT22;9641;51.494;6.670;2023-03-04T02:08:12;5.50;1.00
19017;DHT22;9641;51.494;6.670;2023-03-04T02:10:41;5.50;1.00
19017;DHT22;9641;51.494;6.670;2023-03-04T02:13:09;5.50;1.00
19017;DHT22;9641;51.494;6.670;2023-03-04T02:15:36;5.50;1.00
19017;DHT22;9641;51.494;6.670;2023-03-04T02:18:11;5.50;1.00
19017;DHT22;9641;51.494;6.670;2023-03-04T02:20:47;5.60;1.00
19017;DHT22;9641;51.494;6.670;2023-03-04T02:23:19;5.60;1.00
19017;DHT22;9641;51.494;6.670;2023-03-04T02:25:51;5.60;99.90
19017;DHT22;9641;51.494;6.670;2023-03-04T02:28:22;5.60;99.90
19017;DHT22;9641;51.494;6.670;2023-03-04T02:30:49;5.50;1.00
19017;DHT22;9641;51.494;6.670;2023-03-04T02:33:18;5.50;1.00
19017;DHT22;9641;51.494;6.670;2023-03-04T02:35:45;5.60;99.90
19017;DHT22;9641;51.494;6.670;2023-03-04T02:38:13;5.50;1.00
19017;DHT22;9641;51.494;6.670;2023-03-04T02:40:42;5.50;94.80
19017;DHT22;9641;51.494;6.670;2023-03-04T02:43:11;5.50;99.90
19017;DHT22;9641;51.494;6.670;2023-03-04T02:45:43;5.50;99.90
19017;DHT22;9641;51.494;6.670;2023-03-04T02:48:11;5.50;1.00
19017;DHT22;9641;51.494;6.670;2023-03-04T02:50:41;5.50;1.00
19017;DHT22;9641;51.494;6.670;2023-03-04T02:53:08;5.50;1.00
19017;DHT22;9641;51.494;6.670;2023-03-04T02:55:35;5.40;1.00
19017;DHT22;9641;51.494;6.670;2023-03-04T02:58:02;5.40;1.00
19017;DHT22;9641;51.494;6.670;2023-03-04T03:00:29;5.50;29.00
19017;DHT22;9641;51.494;6.670;2023-03-04T03:02:58;5.40;1.00
19017;DHT22;9641;51.494;6.670;2023-03-04T03:05:27;5.40;1.00
19017;DHT22;9641;51.494;6.670;2023-03-04T03:07:55;5.50;1.00
19017;DHT22;9641;51.494;6.670;2023-03-04T03:10:22;5.50;1.00
19017;DHT22;9641;51.494;6.670;2023-03-04T03:12:50;5.60;1.00
19017;DHT22;9641;51.494;6.670;2023-03-04T03:15:18;5.50;1.00
19017;DHT22;9641;51.494;6.670;2023-03-04T03:17:46;5.40;1.00
19017;DHT22;9641;51.494;6.670;2023-03-04T03:20:15;5.40;19.00
19017;DHT22;9641;51.494;6.670;2023-03-04T03:22:43;5.40;37.20
19017;DHT22;9641;51.494;6.670;2023-03-04T03:25:10;5.40;99.90
19017;DHT22;9641;51.494;6.670;2023-03-04T03:27:37;5.40;99.90
19017;DHT22;9641;51.494;6.670;2023-03-04T03:30:06;5.40;99.90
19017;DHT22;9641;51.494;6.670;2023-03-04T03:32:35;5.40;99.90
19017;DHT22;9641;51.494;6.670;2023-03-04T03:35:03;5.40;99.90
19017;DHT22;9641;51.494;6.670;2023-03-04T03:37:31;5.40;99.90
19017;DHT22;9641;51.494;6.670;2023-03-04T03:39:58;5.30;99.90
19017;DHT22;9641;51.494;6.670;2023-03-04T03:42:25;5.40;1.00
19017;DHT22;9641;51.494;6.670;2023-03-04T03:44:52;5.50;99.90
19017;DHT22;9641;51.494;6.670;2023-03-04T03:47:20;5.50;99.90
19017;DHT22;9641;51.494;6.670;2023-03-04T03:49:47;5.50;99.90
19017;DHT22;9641;51.494;6.670;2023-03-04T03:52:14;5.40;99.90
19017;DHT22;9641;51.494;6.670;2023-03-04T03:54:42;5.40;1.00
19017;DHT22;9641;51.494;6.670;2023-03-04T03:57:09;5.40;1.00
19017;DHT22;9641;51.494;6.670;2023-03-04T03:59:36;5.40;1.00
19017;DHT22;9641;51.494;6.670;2023-03-04T04:02:03;5.40;1.00
19017;DHT22;9641;51.494;6.670;2023-03-04T04:04:30;5.40;1.00
19017;DHT22;9641;51.494;6.670;2023-03-04T04:06:58;5.50;99.90
19017;DHT22;9641;51.494;6.670;2023-03-04T04:09:25;5.50;99.90
19017;DHT22;9641;51.494;6.670;2023-03-04T04:11:53;5.50;1.00
19017;DHT22;9641;51.494;6.670;2023-03-04T04:14:20;5.50;99.90
19017;DHT22;9641;51.494;6.670;2023-03-04T04:16:47;5.50;99.90
19017;DHT22;9641;51.494;6.670;2023-03-04T04:19:17;5.40;1.00
19017;DHT22;9641;51.494;6.670;2023-03-04T04:21:44;5.40;1.00
19017;DHT22;9641;51.494;6.670;2023-03-04T04:24:11;5.40;1.00
19017;DHT22;9641;51.494;6.670;2023-03-04T04:26:38;5.40;1.00
19017;DHT22;9641;51.494;6.670;2023-03-04T04:29:07;5.40;1.00
19017;DHT22;9641;51.494;6.670;2023-03-04T04:31:34;5.40;1.00
19017;DHT22;9641;51.494;6.670;2023-03-04T04:34:01;5.40;1.00
19017;DHT22;9641;51.494;6.670;2023-03-04T04:36:29;5.40;1.00
19017;DHT22;9641;51.494;6.670;2023-03-04T04:38:56;5.50;1.00
19017;DHT22;9641;51.494;6.670;2023-03-04T04:41:27;5.40;1.00
19017;DHT22;9641;51.494;6.670;2023-03-04T04:43:54;5.40;1.00
19017;DHT22;9641;51.494;6.670;2023-03-04T04:46:23;5.50;99.90
19017;DHT22;9641;51.494;6.670;2023-03-04T04:48:50;5.40;99.90
19017;DHT22;9641;51.494;6.670;2023-03-04T04:51:17;5.40;99.90
19017;DHT22;9641;51.494;6.670;2023-03-04T04:53:44;5.40;99.90
19017;DHT22;9641;51.494;6.670;2023-03-04T04:56:13;5.40;99.90
19017;DHT22;9641;51.494;6.670;2023-03-04T04:58:40;5.50;99.90
19017;DHT22;9641;51.494;6.670;2023-03-04T05:01:08;5.40;99.90
19017;DHT22;9641;51.494;6.670;2023-03-04T05:03:37;5.40;1.00
19017;DHT22;9641;51.494;6.670;2023-03-04T05:06:06;5.50;1.00
19017;DHT22;9641;51.494;6.670;2023-03-04T05:08:33;5.50;1.00
19017;DHT22;9641;51.494;6.670;2023-03-04T05:11:01;5.40;1.00
19017;DHT22;9641;51.494;6.670;2023-03-04T05:13:29;5.40;1.00
19017;DHT22;9641;51.494;6.670;2023-03-04T05:15:56;5.50;1.00
19017;DHT22;9641;51.494;6.670;2023-03-04T05:18:24;5.50;1.00
19017;DHT22;9641;51.494;6.670;2023-03-04T05:20:55;5.40;1.00
19017;DHT22;9641;51.494;6.670;2023-03-04T05:23:22;5.40;1.00
19017;DHT22;9641;51.494;6.670;2023-03-04T05:25:49;5.40;1.00
19017;DHT22;9641;51.494;6.670;2023-03-04T05:28:16;5.40;1.00
19017;DHT22;9641;51.494;6.670;2023-03-04T05:30:44;5.40;1.00
19017;DHT22;9641;51.494;6.670;2023-03-04T05:33:13;5.40;1.00
19017;DHT22;9641;51.494;6.670;2023-03-04T05:35:41;5.30;1.00
19017;DHT22;9641;51.494;6.670;2023-03-04T05:38:12;5.30;1.00
19017;DHT22;9641;51.494;6.670;2023-03-04T05:40:40;5.30;1.00
19017;DHT22;9641;51.494;6.670;2023-03-04T05:43:07;5.30;1.00
19017;DHT22;9641;51.494;6.670;2023-03-04T05:45:34;5.30;99.90
19017;DHT22;9641;51.494;6.670;2023-03-04T05:48:01;5.50;99.90
19017;DHT22;9641;51.494;6.670;2023-03-04T05:50:29;5.40;99.90
19017;DHT22;9641;51.494;6.670;2023-03-04T05:52:56;5.40;1.00
19017;DHT22;9641;51.494;6.670;2023-03-04T05:55:25;5.40;99.90
19017;DHT22;9641;51.494;6.670;2023-03-04T05:57:54;5.50;1.00
19017;DHT22;9641;51.494;6.670;2023-03-04T06:00:21;5.50;1.00
19017;DHT22;9641;51.494;6.670;2023-03-04T06:02:49;5.50;1.00
19017;DHT22;9641;51.494;6.670;2023-03-04T06:05:16;5.40;1.00
19017;DHT22;9641;51.494;6.670;2023-03-04T06:07:43;5.40;1.00
19017;DHT22;9641;51.494;6.670;2023-03-04T06:10:13;5.40;1.00
19017;DHT22;9641;51.494;6.670;2023-03-04T06:12:42;5.30;1.00
19017;DHT22;9641;51.494;6.670;2023-03-04T06:15:10;5.30;1.00
19017;DHT22;9641;51.494;6.670;2023-03-04T06:17:38;5.30;1.00
19017;DHT22;9641;51.494;6.670;2023-03-04T06:20:06;5.30;1.00
19017;DHT22;9641;51.494;6.670;2023-03-04T06:22:34;5.40;1.00
19017;DHT22;9641;51.494;6.670;2023-03-04T06:25:01;5.30;1.00
19017;DHT22;9641;51.494;6.670;2023-03-04T06:27:28;5.30;1.00
19017;DHT22;9641;51.494;6.670;2023-03-04T06:29:56;5.40;1.00
19017;DHT22;9641;51.494;6.670;2023-03-04T06:32:23;5.40;1.00
19017;DHT22;9641;51.494;6.670;2023-03-04T06:34:50;5.40;1.00
19017;DHT22;9641;51.494;6.670;2023-03-04T06:37:18;5.30;1.00
19017;DHT22;9641;51.494;6.670;2023-03-04T06:39:45;5.40;1.00
19017;DHT22;9641;51.494;6.670;2023-03-04T06:42:12;5.40;1.00
19017;DHT22;9641;51.494;6.670;2023-03-04T06:44:39;5.30;1.00
19017;DHT22;9641;51.494;6.670;2023-03-04T06:47:08;5.40;1.00
19017;DHT22;9641;51.494;6.670;2023-03-04T06:49:35;5.40;1.00
19017;DHT22;9641;51.494;6.670;2023-03-04T06:52:02;5.40;1.00
19017;DHT22;9641;51.494;6.670;2023-03-04T06:54:29;5.30;1.00
19017;DHT22;9641;51.494;6.670;2023-03-04T06:56:56;5.30;1.00
19017;DHT22;9641;51.494;6.670;2023-03-04T06:59:23;5.30;1.00
19017;DHT22;9641;51.494;6.670;2023-03-04T07:01:50;5.30;1.00
19017;DHT22;9641;51.494;6.670;2023-03-04T07:04:18;5.30;1.00
19017;DHT22;9641;51.494;6.670;2023-03-04T07:06:47;5.30;1.00
19017;DHT22;9641;51.494;6.670;2023-03-04T07:09:14;5.30;1.00
19017;DHT22;9641;51.494;6.670;2023-03-04T07:11:41;5.30;1.00
19017;DHT22;9641;51.494;6.670;2023-03-04T07:14:08;5.30;1.00
19017;DHT22;9641;51.494;6.670;2023-03-04T07:16:35;5.30;1.00
19017;DHT22;9641;51.494;6.670;2023-03-04T07:19:03;5.30;1.00
19017;DHT22;9641;51.494;6.670;2023-03-04T07:21:31;5.30;1.00
19017;DHT22;9641;51.494;6.670;2023-03-04T07:23:58;5.30;1.00
19017;DHT22;9641;51.494;6.670;2023-03-04T07:26:25;5.50;1.00
19017;DHT22;9641;51.494;6.670;2023-03-04T07:28:52;5.40;1.00
19017;DHT22;9641;51.494;6.670;2023-03-04T07:31:21;5.40;1.00
19017;DHT22;9641;51.494;6.670;2023-03-04T07:33:48;5.40;1.00
19017;DHT22;9641;51.494;6.670;2023-03-04T07:36:15;5.40;8.30
19017;DHT22;9641;51.494;6.670;2023-03-04T07:38:46;5.40;1.00
19017;DHT22;9641;51.494;6.670;2023-03-04T07:41:14;5.50;1.00
19017;DHT22;9641;51.494;6.670;2023-03-04T07:43:41;5.60;1.00
19017;DHT22;9641;51.494;6.670;2023-03-04T07:46:08;5.70;1.00
19017;DHT22;9641;51.494;6.670;2023-03-04T07:48:35;5.80;1.00
19017;DHT22;9641;51.494;6.670;2023-03-04T07:51:04;5.90;1.00
19017;DHT22;9641;51.494;6.670;2023-03-04T07:53:32;5.80;1.00
19017;DHT22;9641;51.494;6.670;2023-03-04T07:56:00;5.80;6.50
19017;DHT22;9641;51.494;6.670;2023-03-04T07:58:27;5.80;19.90
19017;DHT22;9641;51.494;6.670;2023-03-04T08:00:54;5.80;12.90
19017;DHT22;9641;51.494;6.670;2023-03-04T08:03:21;5.80;18.30
19017;DHT22;9641;51.494;6.670;2023-03-04T08:05:48;5.90;13.20
19017;DHT22;9641;51.494;6.670;2023-03-04T08:08:15;5.90;39.00
19017;DHT22;9641;51.494;6.670;2023-03-04T08:10:42;6.00;1.00
19017;DHT22;9641;51.494;6.670;2023-03-04T08:13:11;6.20;1.00
19017;DHT22;9641;51.494;6.670;2023-03-04T08:15:40;6.30;1.00
19017;DHT22;9641;51.494;6.670;2023-03-04T08:18:07;6.40;1.00
19017;DHT22;9641;51.494;6.670;2023-03-04T08:20:34;6.40;1.00
19017;DHT22;9641;51.494;6.670;2023-03-04T08:23:01;6.30;1.00
19017;DHT22;9641;51.494;6.670;2023-03-04T08:25:28;6.40;1.00
19017;DHT22;9641;51.494;6.670;2023-03-04T08:27:55;6.50;1.00
19017;DHT22;9641;51.494;6.670;2023-03-04T08:30:24;6.50;1.00
19017;DHT22;9641;51.494;6.670;2023-03-04T08:32:52;6.60;1.00
19017;DHT22;9641;51.494;6.670;2023-03-04T08:35:19;6.80;1.00
19017;DHT22;9641;51.494;6.670;2023-03-04T08:37:46;6.70;1.00
19017;DHT22;9641;51.494;6.670;2023-03-04T08:40:16;6.80;1.00
19017;DHT22;9641;51.494;6.670;2023-03-04T08:42:44;6.70;1.00
19017;DHT22;9641;51.494;6.670;2023-03-04T08:45:12;6.40;1.00
19017;DHT22;9641;51.494;6.670;2023-03-04T08:47:40;6.40;1.00
19017;DHT22;9641;51.494;6.670;2023-03-04T08:50:08;6.40;1.00
19017;DHT22;9641;51.494;6.670;2023-03-04T08:52:39;6.50;1.00
19017;DHT22;9641;51.494;6.670;2023-03-04T08:55:07;6.50;1.00
19017;DHT22;9641;51.494;6.670;2023-03-04T08:57:34;6.70;1.00
19017;DHT22;9641;51.494;6.670;2023-03-04T09:00:01;7.00;1.00
19017;DHT22;9641;51.494;6.670;2023-03-04T09:02:28;7.10;1.00
19017;DHT22;9641;51.494;6.670;2023-03-04T09:04:57;6.90;1.00
19017;DHT22;9641;51.494;6.670;2023-03-04T09:07:24;6.90;1.00
19017;DHT22;9641;51.494;6.670;2023-03-04T09:09:54;6.90;1.00
19017;DHT22;9641;51.494;6.670;2023-03-04T09:12:21;6.90;1.00
19017;DHT22;9641;51.494;6.670;2023-03-04T09:14:49;7.00;1.00
19017;DHT22;9641;51.494;6.670;2023-03-04T09:17:16;7.10;1.00
19017;DHT22;9641;51.494;6.670;2023-03-04T09:19:43;7.20;1.00
19017;DHT22;9641;51.494;6.670;2023-03-04T09:22:12;7.10;1.00
19017;DHT22;9641;51.494;6.670;2023-03-04T09:24:39;7.30;1.00
19017;DHT22;9641;51.494;6.670;2023-03-04T09:27:07;7.60;1.00
19017;DHT22;9641;51.494;6.670;2023-03-04T09:29:34;7.80;99.90
19017;DHT22;9641;51.494;6.670;2023-03-04T09:32:01;8.00;99.90
19017;DHT22;9641;51.494;6.670;2023-03-04T09:34:28;8.00;1.00
19017;DHT22;9641;51.494;6.670;2023-03-04T09:36:55;8.00;1.00
19017;DHT22;9641;51.494;6.670;2023-03-04T09:39:24;7.70;99.90
19017;DHT22;9641;51.494;6.670;2023-03-04T09:41:54;7.70;1.00
19017;DHT22;9641;51.494;6.670;2023-03-04T09:44:25;7.80;99.90
19017;DHT22;9641;51.494;6.670;2023-03-04T09:46:56;7.80;99.90
19017;DHT22;9641;51.494;6.670;2023-03-04T09:49:24;7.70;1.00
19017;DHT22;9641;51.494;6.670;2023-03-04T09:51:58;7.70;1.00
19017;DHT22;9641;51.494;6.670;2023-03-04T09:54:35;8.10;1.00
19017;DHT22;9641;51.494;6.670;2023-03-04T09:57:22;8.60;1.00
19017;DHT22;9641;51.494;6.670;2023-03-04T09:59:55;9.00;1.00
19017;DHT22;9641;51.494;6.670;2023-03-04T10:02:33;8.80;1.00
19017;DHT22;9641;51.494;6.670;2023-03-04T10:05:03;8.80;99.90
19017;DHT22;9641;51.494;6.670;2023-03-04T10:07:34;8.80;1.00
19017;DHT22;9641;51.494;6.670;2023-03-04T10:10:09;8.50;1.00
19017;DHT22;9641;51.494;6.670;2023-03-04T10:12:42;8.10;99.90
19017;DHT22;9641;51.494;6.670;2023-03-04T10:15:22;7.60;1.00
19017;DHT22;9641;51.494;6.670;2023-03-04T10:17:56;7.80;1.00
19017;DHT22;9641;51.494;6.670;2023-03-04T10:20:26;8.10;99.90
19017;DHT22;9641;51.494;6.670;2023-03-04T10:22:58;8.30;1.00
19017;DHT22;9641;51.494;6.670;2023-03-04T10:25:30;8.60;99.90
19017;DHT22;9641;51.494;6.670;2023-03-04T10:27:59;9.10;99.90
19017;DHT22;9641;51.494;6.670;2023-03-04T10:30:36;9.20;1.00
19017;DHT22;9641;51.494;6.670;2023-03-04T10:33:11;9.10;1.00
19017;DHT22;9641;51.494;6.670;2023-03-04T10:35:39;9.20;99.90
19017;DHT22;9641;51.494;6.670;2023-03-04T10:38:09;9.00;99.90
19017;DHT22;9641;51.494;6.670;2023-03-04T10:40:40;8.90;1.00
19017;DHT22;9641;51.494;6.670;2023-03-04T10:43:14;8.90;1.00
19017;DHT22;9641;51.494;6.670;2023-03-04T10:45:41;8.70;99.90
19017;DHT22;9641;51.494;6.670;2023-03-04T10:48:22;8.60;1.00
19017;DHT22;9641;51.494;6.670;2023-03-04T10:50:49;8.50;99.90
19017;DHT22;9641;51.494;6.670;2023-03-04T10:53:29;8.50;1.00
19017;DHT22;9641;51.494;6.670;2023-03-04T10:55:59;8.40;1.00
19017;DHT22;9641;51.494;6.670;2023-03-04T10:58:28;8.40;1.00
19017;DHT22;9641;51.494;6.670;2023-03-04T11:01:02;8.30;99.90
19017;DHT22;9641;51.494;6.670;2023-03-04T11:03:31;8.20;1.00
19017;DHT22;9641;51.494;6.670;2023-03-04T11:06:10;8.20;1.00
19017;DHT22;9641;51.494;6.670;2023-03-04T11:08:41;8.40;1.00
19017;DHT22;9641;51.494;6.670;2023-03-04T11:11:24;8.60;52.70
19017;DHT22;9641;51.494;6.670;2023-03-04T11:13:54;8.80;1.00
19017;DHT22;9641;51.494;6.670;2023-03-04T11:16:26;9.00;99.90
19017;DHT22;9641;51.494;6.670;2023-03-04T11:18:58;8.90;99.90
19017;DHT22;9641;51.494;6.670;2023-03-04T11:21:29;8.60;1.00
19017;DHT22;9641;51.494;6.670;2023-03-04T11:24:00;8.50;99.90
19017;DHT22;9641;51.494;6.670;2023-03-04T11:26:31;8.40;99.90
19017;DHT22;9641;51.494;6.670;2023-03-04T11:29:06;8.40;99.90
19017;DHT22;9641;51.494;6.670;2023-03-04T11:31:37;8.60;1.00
19017;DHT22;9641;51.494;6.670;2023-03-04T11:34:10;8.60;1.00
19017;DHT22;9641;51.494;6.670;2023-03-04T11:36:50;8.60;8.70
19017;DHT22;9641;51.494;6.670;2023-03-04T11:39:24;8.60;24.20
19017;DHT22;9641;51.494;6.670;2023-03-04T11:42:04;8.50;1.00
19017;DHT22;9641;51.494;6.670;2023-03-04T11:44:33;8.60;1.00
19017;DHT22;9641;51.494;6.670;2023-03-04T11:47:37;8.60;1.00
19017;DHT22;9641;51.494;6.670;2023-03-04T11:50:28;8.80;15.10
19017;DHT22;9641;51.494;6.670;2023-03-04T11:53:10;8.80;1.00
19017;DHT22;9641;51.494;6.670;2023-03-04T11:55:45;8.90;1.00
19017;DHT22;9641;51.494;6.670;2023-03-04T11:58:43;8.70;1.00
19017;DHT22;9641;51.494;6.670;2023-03-04T12:01:18;8.50;99.90
19017;DHT22;9641;51.494;6.670;2023-03-04T12:04:13;8.30;1.00
19017;DHT22;9641;51.494;6.670;2023-03-04T12:06:51;8.30;1.00
19017;DHT22;9641;51.494;6.670;2023-03-04T12:09:41;8.40;1.00
19017;DHT22;9641;51.494;6.670;2023-03-04T12:12:26;8.60;1.00
19017;DHT22;9641;51.494;6.670;2023-03-04T12:15:05;8.60;1.00
19017;DHT22;9641;51.494;6.670;2023-03-04T12:17:47;8.60;1.00
19017;DHT22;9641;51.494;6.670;2023-03-04T12:20:40;8.60;1.00
19017;DHT22;9641;51.494;6.670;2023-03-04T12:23:20;8.60;1.00
19017;DHT22;9641;51.494;6.670;2023-03-04T12:25:56;8.40;1.00
19017;DHT22;9641;51.494;6.670;2023-03-04T12:28:33;8.10;1.00
19017;DHT22;9641;51.494;6.670;2023-03-04T12:31:23;7.90;1.00
19017;DHT22;9641;51.494;6.670;2023-03-04T12:34:13;7.70;1.00
19017;DHT22;9641;51.494;6.670;2023-03-04T12:36:54;7.60;17.60
19017;DHT22;9641;51.494;6.670;2023-03-04T12:39:30;7.50;43.10
19017;DHT22;9641;51.494;6.670;2023-03-04T12:42:08;7.50;24.60
19017;DHT22;9641;51.494;6.670;2023-03-04T12:44:46;7.40;41.10
19017;DHT22;9641;51.494;6.670;2023-03-04T12:47:26;7.30;52.30
19017;DHT22;9641;51.494;6.670;2023-03-04T12:50:12;7.40;77.00
19017;DHT22;9641;51.494;6.670;2023-03-04T12:52:49;7.40;59.30
19017;DHT22;9641;51.494;6.670;2023-03-04T12:55:22;7.50;43.80
19017;DHT22;9641;51.494;6.670;2023-03-04T12:57:54;7.50;44.20
19017;DHT22;9641;51.494;6.670;2023-03-04T13:00:33;7.80;51.00
19017;DHT22;9641;51.494;6.670;2023-03-04T13:03:10;8.20;19.60
19017;DHT22;9641;51.494;6.670;2023-03-04T13:05:54;8.50;1.00
19017;DHT22;9641;51.494;6.670;2023-03-04T13:08:31;8.60;1.00
19017;DHT22;9641;51.494;6.670;2023-03-04T13:11:00;8.70;1.00
19017;DHT22;9641;51.494;6.670;2023-03-04T13:13:37;8.90;1.00
19017;DHT22;9641;51.494;6.670;2023-03-04T13:16:20;9.00;1.00
19017;DHT22;9641;51.494;6.670;2023-03-04T13:18:54;9.00;1.00
19017;DHT22;9641;51.494;6.670;2023-03-04T13:21:23;9.00;1.00
19017;DHT22;9641;51.494;6.670;2023-03-04T13:23:50;8.70;1.00
19017;DHT22;9641;51.494;6.670;2023-03-04T13:26:29;8.50;1.00
19017;DHT22;9641;51.494;6.670;2023-03-04T13:29:33;8.20;1.00
19017;DHT22;9641;51.494;6.670;2023-03-04T13:32:04;8.20;1.00
19017;DHT22;9641;51.494;6.670;2023-03-04T13:34:47;8.10;1.00
19017;DHT22;9641;51.494;6.670;2023-03-04T13:37:33;8.20;1.00
19017;DHT22;9641;51.494;6.670;2023-03-04T13:40:32;8.20;1.00
19017;DHT22;9641;51.494;6.670;2023-03-04T13:43:24;8.20;1.00
19017;DHT22;9641;51.494;6.670;2023-03-04T13:45:52;8.20;1.00
19017;DHT22;9641;51.494;6.670;2023-03-04T13:48:26;8.20;1.00
19017;DHT22;9641;51.494;6.670;2023-03-04T13:50:56;8.30;1.00
19017;DHT22;9641;51.494;6.670;2023-03-04T13:53:38;8.40;1.00
19017;DHT22;9641;51.494;6.670;2023-03-04T13:59:28;8.20;21.10
19017;DHT22;9641;51.494;6.670;2023-03-04T14:01:58;8.00;56.50
19017;DHT22;9641;51.494;6.670;2023-03-04T14:04:34;7.80;99.90
19017;DHT22;9641;51.494;6.670;2023-03-04T14:07:19;7.80;99.90
19017;DHT22;9641;51.494;6.670;2023-03-04T14:09:55;7.90;99.90
19017;DHT22;9641;51.494;6.670;2023-03-04T14:12:22;8.00;99.90
19017;DHT22;9641;51.494;6.670;2023-03-04T14:14:53;8.00;99.90
19017;DHT22;9641;51.494;6.670;2023-03-04T14:17:24;8.20;99.90
19017;DHT22;9641;51.494;6.670;2023-03-04T14:19:51;8.50;91.90
19017;DHT22;9641;51.494;6.670;2023-03-04T14:22:24;8.60;29.00
19017;DHT22;9641;51.494;6.670;2023-03-04T14:24:56;8.70;10.70
19017;DHT22;9641;51.494;6.670;2023-03-04T14:27:23;8.90;1.00
19017;DHT22;9641;51.494;6.670;2023-03-04T14:29:54;9.00;1.00
19017;DHT22;9641;51.494;6.670;2023-03-04T14:32:22;9.10;1.00
19017;DHT22;9641;51.494;6.670;2023-03-04T14:34:53;9.00;1.00
19017;DHT22;9641;51.494;6.670;2023-03-04T14:37:25;9.10;1.00
19017;DHT22;9641;51.494;6.670;2023-03-04T14:39:56;9.10;1.00
19017;DHT22;9641;51.494;6.670;2023-03-04T14:42:33;8.90;1.00
19017;DHT22;9641;51.494;6.670;2023-03-04T14:45:02;8.70;1.00
19017;DHT22;9641;51.494;6.670;2023-03-04T14:47:32;8.60;1.00
19017;DHT22;9641;51.494;6.670;2023-03-04T14:50:04;8.30;1.00
19017;DHT22;9641;51.494;6.670;2023-03-04T14:52:35;8.30;1.00
19017;DHT22;9641;51.494;6.670;2023-03-04T14:55:17;8.20;1.00
19017;DHT22;9641;51.494;6.670;2023-03-04T14:57:48;8.00;1.00
19017;DHT22;9641;51.494;6.670;2023-03-04T15:00:24;7.90;18.10
19017;DHT22;9641;51.494;6.670;2023-03-04T15:02:53;7.90;33.80
19017;DHT22;9641;51.494;6.670;2023-03-04T15:05:23;7.90;32.00
19017;DHT22;9641;51.494;6.670;2023-03-04T15:07:54;7.90;7.60
19017;DHT22;9641;51.494;6.670;2023-03-04T15:10:29;7.90;1.00
19017;DHT22;9641;51.494;6.670;2023-03-04T15:12:58;7.90;1.00
19017;DHT22;9641;51.494;6.670;2023-03-04T15:15:32;7.80;1.00
19017;DHT22;9641;51.494;6.670;2023-03-04T15:18:00;7.70;1.00
19017;DHT22;9641;51.494;6.670;2023-03-04T15:20:29;7.60;1.00
19017;DHT22;9641;51.494;6.670;2023-03-04T15:23:00;7.50;1.00
19017;DHT22;9641;51.494;6.670;2023-03-04T15:25:28;7.60;1.00
19017;DHT22;9641;51.494;6.670;2023-03-04T15:27:55;7.70;1.00
19017;DHT22;9641;51.494;6.670;2023-03-04T15:30:25;7.80;1.00
19017;DHT22;9641;51.494;6.670;2023-03-04T15:32:54;7.80;1.00
19017;DHT22;9641;51.494;6.670;2023-03-04T15:35:22;7.80;1.00
19017;DHT22;9641;51.494;6.670;2023-03-04T15:37:50;7.90;1.00
19017;DHT22;9641;51.494;6.670;2023-03-04T15:40:26;7.80;99.90
19017;DHT22;9641;51.494;6.670;2023-03-04T15:42:56;7.80;99.90
19017;DHT22;9641;51.494;6.670;2023-03-04T15:45:25;7.80;99.90
19017;DHT22;9641;51.494;6.670;2023-03-04T15:47:52;7.70;99.90
19017;DHT22;9641;51.494;6.670;2023-03-04T15:50:26;7.70;99.90
19017;DHT22;9641;51.494;6.670;2023-03-04T15:52:56;7.70;99.90
19017;DHT22;9641;51.494;6.670;2023-03-04T15:55:28;7.70;99.90
19017;DHT22;9641;51.494;6.670;2023-03-04T15:57:58;7.70;99.90
19017;DHT22;9641;51.494;6.670;2023-03-04T16:00:26;7.60;99.90
19017;DHT22;9641;51.494;6.670;2023-03-04T16:02:53;7.60;99.90
19017;DHT22;9641;51.494;6.670;2023-03-04T16:05:20;7.80;99.90
19017;DHT22;9641;51.494;6.670;2023-03-04T16:07:49;7.80;92.30
19017;DHT22;9641;51.494;6.670;2023-03-04T16:10:19;7.80;1.00
19017;DHT22;9641;51.494;6.670;2023-03-04T16:12:48;7.90;30.70
19017;DHT22;9641;51.494;6.670;2023-03-04T16:15:17;7.80;1.00
19017;DHT22;9641;51.494;6.670;2023-03-04T16:17:45;7.80;99.90
19017;DHT22;9641;51.494;6.670;2023-03-04T16:20:13;7.80;43.00
19017;DHT22;9641;51.494;6.670;2023-03-04T16:22:42;7.80;1.00
19017;DHT22;9641;51.494;6.670;2023-03-04T16:25:46;7.90;99.90
19017;DHT22;9641;51.494;6.670;2023-03-04T16:28:11;7.80;1.00
19017;DHT22;9641;51.494;6.670;2023-03-04T16:30:39;7.80;99.90
19017;DHT22;9641;51.494;6.670;2023-03-04T16:33:06;7.80;1.00
19017;DHT22;9641;51.494;6.670;2023-03-04T16:35:34;7.80;1.00
19017;DHT22;9641;51.494;6.670;2023-03-04T16:38:02;7.70;99.90